createdAt,value
2023-02-21T00:13:50.998Z,2456.46247
2023-02-21T00:28:52.842Z,2504.67341
2023-02-21T00:43:54.724Z,2540.28488
2023-02-21T00:58:56.578Z,2533.0818
2023-02-21T01:13:58.409Z,2502.33478
2023-02-21T01:29:00.285Z,2504.67341
2023-02-21T01:44:02.112Z,2488.3942
2023-02-21T01:59:03.954Z,2507.01642
2023-02-21T02:14:05.803Z,2509.36381
2023-02-21T02:29:07.683Z,2488.3942
2023-02-21T02:44:09.511Z,2521.16702
2023-02-21T02:59:11.380Z,2507.01642
2023-02-21T03:14:13.230Z,2569.51154
2023-02-21T03:29:15.095Z,2495.34502
2023-02-21T03:44:16.947Z,2483.78179
2023-02-21T03:59:18.835Z,2472.32524
2023-02-21T04:14:20.682Z,2509.36381
2023-02-21T04:29:22.521Z,2554.81462
2023-02-21T04:44:24.356Z,2525.91946
2023-02-21T04:59:26.268Z,2569.51154
2023-02-21T05:14:28.092Z,2476.89515
2023-02-21T05:29:29.948Z,2463.23581
2023-02-21T05:44:31.836Z,2429.73759
2023-02-21T05:59:33.921Z,2427.53674
2023-02-21T06:14:35.773Z,2373.78262
2023-02-21T06:29:37.586Z,2449.72629
2023-02-21T06:44:39.508Z,2397.13826
2023-02-21T06:59:41.387Z,2338.56944
2023-02-21T07:14:43.249Z,2267.34399
2023-02-21T07:29:45.064Z,2259.69697
2023-02-21T07:44:46.900Z,2267.34399
2023-02-21T07:59:48.737Z,2282.79437
2023-02-21T08:14:50.565Z,2235.1965
2023-02-21T08:29:52.403Z,2147.4364
2023-02-21T08:44:54.256Z,2161.29083
2023-02-21T08:59:56.133Z,2171.79953
2023-02-21T09:14:58.293Z,2142.28667
2023-02-21T09:30:00.158Z,2111.89964
2023-02-21T09:45:04.561Z,2093.7505
2023-02-21T10:00:06.612Z,2093.7505
2023-02-21T10:15:08.493Z,2018.07279
2023-02-21T10:30:10.439Z,1991.0852
2023-02-21T10:45:12.340Z,1986.65728
2023-02-21T11:00:14.185Z,1502.24267
2023-02-21T11:15:16.007Z,1262.95998
2023-02-21T11:30:17.993Z,1149.22863
2023-02-21T11:45:19.846Z,986.01963
2023-02-21T12:00:21.667Z,953.73715
2023-02-21T12:15:23.515Z,947.66669
2023-02-21T12:30:25.440Z,935.75469
2023-02-21T12:45:27.278Z,870.69575
2023-02-21T13:00:29.135Z,887.41772
2023-02-21T13:15:31.017Z,929.26541
2023-02-21T13:30:32.980Z,939.69194
2023-02-21T13:45:34.986Z,937.71918
2023-02-21T14:00:36.945Z,962.64418
2023-02-21T14:15:38.796Z,995.54285
2023-02-21T14:30:40.714Z,1038.76019
2023-02-21T14:45:42.632Z,1044.42762
2023-02-21T15:00:44.501Z,1056.78284
2023-02-21T15:15:46.362Z,911.56512
2023-02-21T15:30:48.293Z,893.92978
2023-02-21T15:45:51.372Z,920.33017
2023-02-21T16:00:53.352Z,953.73715
2023-02-21T16:15:55.323Z,1002.24433
2023-02-21T16:30:57.302Z,1046.8755
2023-02-21T16:45:59.172Z,1084.1429
2023-02-21T17:01:01.014Z,1122.27856
2023-02-21T17:16:02.904Z,1162.18611
2023-02-21T17:31:04.918Z,1223.7448
2023-02-21T17:46:06.880Z,1288.46205
2023-02-21T18:01:10.075Z,1348.08904
2023-02-21T18:16:12.047Z,1419.49204
2023-02-21T18:31:14.236Z,1479.02921
2023-02-21T18:46:16.268Z,1541.11608
2023-02-21T19:01:18.534Z,1593.34175
2023-02-21T19:16:20.772Z,1673.95427
2023-02-21T19:31:22.785Z,1756.22592
2023-02-21T19:46:24.658Z,1807.14817
2023-02-21T20:01:26.630Z,1849.55191
2023-02-21T20:16:28.576Z,1957.63381
2023-02-21T20:31:30.507Z,2050.49782
2023-02-21T20:46:32.381Z,2098.66926
2023-02-21T21:01:34.293Z,2111.89964
2023-02-21T21:16:36.171Z,2145.71708
2023-02-21T21:31:38.086Z,2191.33329
2023-02-21T21:46:40.225Z,2194.9227
2023-02-21T22:01:42.110Z,2200.32891
2023-02-21T22:16:43.986Z,2267.34399
2023-02-21T22:31:45.778Z,2326.3894
2023-02-21T22:46:47.662Z,2399.28431
2023-02-21T23:01:49.559Z,2447.4891
2023-02-21T23:16:51.398Z,2467.77215
2023-02-21T23:31:53.350Z,2528.3024
2023-02-21T23:46:55.317Z,2545.10973
